Flight Track Log - Related Links

Times and Time Zones

All times are in EDT time to prevent confusion due to time zone crossing. See the KFS20 flight status page for this flight to view local times or setup timezone preferences in your user account.

Time Position Orientation Groundspeed Altitude Reporting Facility
EDT Latitude Longitude Course Direction KTS MPH feet Rate Location/Type
Fri 03:58:03 PM 42.2150 -83.5692 233° Southwest 154 177 1,700  Level Cleveland Center
Fri 03:59:17 PM 42.1844 -83.6236 233° Southwest 174 200 3,700 1,209 Climbing Cleveland Center
Fri 04:00:17 PM 42.1972 -83.6944 284° West 205 236 4,400 1,230 Climbing Cleveland Center
Fri 04:01:19 PM 42.2036 -83.7619 277° West 163 188 6,200 1,268 Climbing Cleveland Center
Fri 04:02:20 PM 42.2142 -83.8297 282° West 184 212 7,000 393 Climbing Cleveland Center
Fri 04:03:21 PM 42.2225 -83.9089 278° West 220 253 7,000 511 Level Cleveland Center
Fri 04:05:00 PM 42.2500 -84.0513 270° West  Level FlightAware Approximate
Fri 04:07:25 PM 42.1969 -84.1814 236° Southwest 214 246 9,600  Level Chicago Center
Fri 04:08:27 PM 42.1431 -84.2225 209° Southwest 220 253 10,000 194 Climbing Chicago Center
Fri 04:09:29 PM 42.0747 -84.2808 212° Southwest 237 273 10,000 145 Level Chicago Center
Fri 04:10:31 PM 42.0172 -84.3306 213° Southwest 243 280 10,300 495 Climbing Chicago Center
Fri 04:11:18 PM 41.9725 -84.3706 214° Southwest 243 280 10,900 393 Climbing Cleveland Center
Fri 04:12:00 PM 42.1535 -84.6098 236° Southwest  Level FlightAware Approximate
Fri 04:12:18 PM 41.9186 -84.4206 215° Southwest 243 280 11,000  Level Cleveland Center
Fri 04:13:18 PM 41.8628 -84.4731 215° Southwest 243 280 11,000 450 Level Cleveland Center
Fri 04:14:18 PM 41.8069 -84.5169 210° Southwest 248 285 11,900 1,050 Climbing Cleveland Center
Fri 04:15:18 PM 41.7575 -84.5611 214° Southwest 229 264 13,100 1,190 Climbing Cleveland Center
Fri 04:16:19 PM 41.7125 -84.5975 211° Southwest 215 247 14,300 942 Climbing Cleveland Center
Fri 04:17:19 PM 41.6650 -84.6417 215° Southwest 204 235 15,000 403 Climbing Cleveland Center
Fri 04:18:18 PM 41.6133 -84.6886 214° Southwest 210 242 15,100 404 Climbing Cleveland Center
Fri 04:18:48 PM 41.5922 -84.7028 207° Southwest 232 267 15,600 1,043 Climbing Chicago Center
Fri 04:19:50 PM 41.5419 -84.7456 212° Southwest 217 250 16,700 1,065 Climbing Chicago Center
Fri 04:20:52 PM 41.4867 -84.7958 214° Southwest 202 232 17,800 1,016 Climbing Chicago Center
Fri 04:21:54 PM 41.4397 -84.8367 213° Southwest 201 231 18,800 871 Climbing Chicago Center
Fri 04:22:56 PM 41.3936 -84.8758 213° Southwest 198 228 19,600 581 Climbing Chicago Center
Fri 04:23:58 PM 41.3456 -84.9175 213° Southwest 203 234 20,000 194 Climbing Chicago Center
Fri 04:25:00 PM 41.2933 -84.9639 214° Southwest 222 255 20,000  Level Chicago Center
Fri 04:26:02 PM 41.2378 -85.0153 215° Southwest 239 275 20,000  Level Chicago Center
Fri 04:27:04 PM 41.1797 -85.0650 213° Southwest 246 283 20,000  Level Chicago Center
Fri 04:28:07 PM 41.1092 -85.1231 212° Southwest 248 285 20,000  Level Chicago Center
Fri 04:29:09 PM 41.0481 -85.1681 209° Southwest 250 288 20,000  Level Chicago Center
Fri 04:30:11 PM 40.9867 -85.2114 208° Southwest 250 288 20,000  Level Chicago Center
Fri 04:31:13 PM 40.9258 -85.2569 210° Southwest 251 289 20,000  Level Chicago Center
Fri 04:32:15 PM 40.8642 -85.3019 209° Southwest 252 290 20,000  Level Chicago Center
Fri 04:33:17 PM 40.8033 -85.3483 210° Southwest 251 289 20,000  Level Chicago Center
Fri 04:34:19 PM 40.7292 -85.4017 209° Southwest 253 291 20,000  Level Chicago Center
Fri 04:35:21 PM 40.6628 -85.4328 200° South 254 292 20,000  Level Chicago Center
Fri 04:36:23 PM 40.6014 -85.4608 199° South 256 295 20,000 -290 Level Chicago Center
Fri 04:37:25 PM 40.5203 -85.5006 200° South 261 300 19,400 -677 Descending Chicago Center
Fri 04:38:27 PM 40.4528 -85.5519 210° Southwest 278 320 18,600 -816 Descending Chicago Center
Fri 04:39:30 PM 40.3869 -85.6053 212° Southwest 279 321 17,700 -1,041 Descending Chicago Center
Fri 04:40:05 PM 40.3453 -85.6389 212° Southwest 282 325 16,900 -1,299 Descending Indianapolis Center
Fri 04:41:07 PM 40.2778 -85.6956 213° Southwest 287 330 15,600 -1,355 Descending Indianapolis Center
Fri 04:42:09 PM 40.2242 -85.7694 226° Southwest 282 325 14,100 -1,500 Descending Indianapolis Center
Fri 04:43:11 PM 40.1764 -85.8483 232° Southwest 280 322 12,500 -1,645 Descending Indianapolis Center
Fri 04:44:13 PM 40.1225 -85.9358 231° Southwest 264 304 10,700 -1,790 Descending Indianapolis Center
Fri 04:45:15 PM 40.0803 -86.0094 233° Southwest 259 298 8,800 -1,742 Descending Indianapolis Center
Fri 04:46:17 PM 40.0394 -86.0772 232° Southwest 250 288 7,100 -1,839 Descending Indianapolis Center
Fri 04:47:19 PM 40.0031 -86.1431 234° Southwest 238 274 5,000 -1,694 Descending Indianapolis Center
Fri 04:48:21 PM 39.9694 -86.2075 236° Southwest 227 261 3,600 -1,355 Descending Indianapolis Center

Login

Don't have an account? Register now (free) for customized features, flight alerts, and more!